createdAt,value
2023-01-12T00:01:27.582Z,33.75
2023-01-12T00:03:55.335Z,37.72
2023-01-12T00:06:23.070Z,35.67
2023-01-12T00:08:51.127Z,34.33
2023-01-12T00:11:18.550Z,36.38
2023-01-12T00:13:45.452Z,34.85
2023-01-12T00:16:36.825Z,34.78
2023-01-12T00:19:23.051Z,31.83
2023-01-12T00:22:12.360Z,33.22
2023-01-12T00:24:44.558Z,38.85
2023-01-12T00:27:16.777Z,36.25
2023-01-12T00:29:43.441Z,30.35
2023-01-12T00:32:15.823Z,27.85
2023-01-12T00:34:42.918Z,25.52
2023-01-12T00:37:09.615Z,29.60
2023-01-12T00:42:42.005Z,30.23
2023-01-12T00:45:22.069Z,25.48
2023-01-12T00:47:48.470Z,37.05
2023-01-12T00:50:16.526Z,27.13
2023-01-12T00:52:45.091Z,22.85
2023-01-12T00:55:11.537Z,23.23
2023-01-12T00:57:38.101Z,23.25
2023-01-12T01:00:05.119Z,27.77
2023-01-12T01:02:31.579Z,32.13
2023-01-12T01:04:58.086Z,20.15
2023-01-12T01:07:24.569Z,25.02
2023-01-12T01:09:51.392Z,31.52
2023-01-12T01:12:17.859Z,27.23
2023-01-12T01:14:44.424Z,31.85
2023-01-12T01:17:10.829Z,22.80
2023-01-12T01:19:37.548Z,18.42
2023-01-12T01:22:04.058Z,16.83
2023-01-12T01:24:30.583Z,27.55
2023-01-12T01:26:57.073Z,25.98
2023-01-12T01:29:23.518Z,23.08
2023-01-12T01:31:49.951Z,20.20
2023-01-12T01:34:16.422Z,24.70
2023-01-12T01:36:42.929Z,20.70
2023-01-12T01:39:09.494Z,25.08
2023-01-12T01:44:28.892Z,26.88
2023-01-12T01:47:07.937Z,29.92
2023-01-12T01:49:39.064Z,17.95
2023-01-12T01:52:11.675Z,25.50
2023-01-12T01:54:45.634Z,28.67
2023-01-12T01:57:13.890Z,27.73
2023-01-12T01:59:44.720Z,29.33
2023-01-12T02:02:12.124Z,30.75
2023-01-12T02:04:38.952Z,26.65
2023-01-12T02:07:06.962Z,28.60
2023-01-12T02:09:33.586Z,32.50
2023-01-12T02:12:18.683Z,27.05
2023-01-12T02:15:07.542Z,24.83
2023-01-12T02:17:53.473Z,27.67
2023-01-12T02:20:49.373Z,29.58
2023-01-12T02:23:43.965Z,31.33
2023-01-12T02:26:29.861Z,26.88
2023-01-12T02:29:44.891Z,34.25
2023-01-12T02:32:31.285Z,18.52
2023-01-12T02:35:22.430Z,20.50
2023-01-12T02:38:03.625Z,19.20
2023-01-12T02:40:48.024Z,29.02
2023-01-12T02:43:32.747Z,24.85
2023-01-12T02:46:11.454Z,22.75
2023-01-12T02:48:42.205Z,20.50
2023-01-12T02:51:11.752Z,24.05
2023-01-12T02:53:47.405Z,21.63
2023-01-12T02:56:19.630Z,18.90
2023-01-12T02:58:51.311Z,24.60
2023-01-12T03:01:20.765Z,18.67
2023-01-12T03:03:49.754Z,25.23
2023-01-12T03:06:17.627Z,22.70
2023-01-12T03:08:47.751Z,22.38
2023-01-12T03:11:16.570Z,20.17
2023-01-12T03:13:49.235Z,22.58
2023-01-12T03:16:20.811Z,18.35
2023-01-12T03:19:01.500Z,24.95
2023-01-12T03:21:35.005Z,20.70
2023-01-12T03:24:25.404Z,19.67
2023-01-12T03:26:58.750Z,13.65
2023-01-12T03:29:31.513Z,19.20
2023-01-12T03:31:59.307Z,20.90
2023-01-12T03:34:26.365Z,17.98
2023-01-12T03:37:03.372Z,16.73
2023-01-12T03:39:47.971Z,20.10
2023-01-12T03:42:32.956Z,14.05
2023-01-12T03:45:11.595Z,18.38
2023-01-12T03:47:43.428Z,16.27
2023-01-12T03:50:16.561Z,14.93
2023-01-12T03:52:45.051Z,19.33
2023-01-12T03:55:15.605Z,16.73
2023-01-12T03:57:44.744Z,18.45
2023-01-12T04:00:13.341Z,18.67
2023-01-12T04:02:42.879Z,22.23
2023-01-12T04:05:10.261Z,15.38
2023-01-12T04:07:36.755Z,17.70
2023-01-12T04:10:03.724Z,15.60
2023-01-12T04:12:30.202Z,19.80
2023-01-12T04:14:56.727Z,17.45
2023-01-12T04:17:25.211Z,16.58
2023-01-12T04:19:52.214Z,18.60
2023-01-12T04:22:37.893Z,20.30
2023-01-12T04:25:04.925Z,20.20
2023-01-12T04:27:31.347Z,23.17
2023-01-12T04:29:57.810Z,18.65
2023-01-12T04:32:24.373Z,24.02
2023-01-12T04:34:50.849Z,24.40
2023-01-12T04:37:17.615Z,20.52
2023-01-12T04:39:44.116Z,20.30
2023-01-12T04:42:30.476Z,18.38
2023-01-12T04:44:56.847Z,17.17
2023-01-12T04:47:23.307Z,16.88
2023-01-12T04:49:49.738Z,17.65
2023-01-12T04:52:16.119Z,29.20
2023-01-12T04:54:42.534Z,20.00
2023-01-12T04:57:08.904Z,19.05
2023-01-12T04:59:35.289Z,14.80
2023-01-12T05:02:01.838Z,20.60
2023-01-12T05:04:28.376Z,15.85
2023-01-12T05:06:54.772Z,21.63
2023-01-12T05:09:39.581Z,21.92
2023-01-12T05:12:06.312Z,19.20
2023-01-12T05:14:32.820Z,19.40
2023-01-12T05:16:59.651Z,21.45
2023-01-12T05:19:26.032Z,21.10
2023-01-12T05:21:52.429Z,21.58
2023-01-12T05:24:18.990Z,23.02
2023-01-12T05:26:45.391Z,23.15
2023-01-12T05:29:12.561Z,23.70
2023-01-12T05:31:39.018Z,25.08
2023-01-12T05:34:05.444Z,29.60
2023-01-12T05:36:31.864Z,28.45
2023-01-12T05:38:58.293Z,24.90
2023-01-12T05:41:24.942Z,23.95
2023-01-12T05:43:51.422Z,24.15
2023-01-12T05:46:17.836Z,25.83
2023-01-12T05:48:44.458Z,23.52
2023-01-12T05:51:12.090Z,22.00
2023-01-12T05:53:38.599Z,29.00
2023-01-12T05:56:17.191Z,21.55
2023-01-12T05:58:43.825Z,26.73
2023-01-12T06:01:10.596Z,22.77
2023-01-12T06:03:37.439Z,20.60
2023-01-12T06:06:04.575Z,22.00
2023-01-12T06:08:31.050Z,23.92
2023-01-12T06:11:03.789Z,25.02
2023-01-12T06:13:48.947Z,21.10
2023-01-12T06:16:15.437Z,21.95
2023-01-12T06:18:42.022Z,20.95
2023-01-12T06:21:10.036Z,20.73
2023-01-12T06:23:36.588Z,20.25
2023-01-12T06:26:05.656Z,22.13
2023-01-12T06:28:32.120Z,20.27
2023-01-12T06:31:00.395Z,21.92
2023-01-12T06:33:27.945Z,23.20
2023-01-12T06:35:55.325Z,21.80
2023-01-12T06:38:23.532Z,21.67
2023-01-12T06:40:50.052Z,22.38
2023-01-12T06:43:16.879Z,25.45
2023-01-12T06:45:43.898Z,21.30
2023-01-12T06:48:10.517Z,22.20
2023-01-12T06:50:37.534Z,23.20
2023-01-12T06:53:06.823Z,22.67
2023-01-12T06:55:33.487Z,22.90
2023-01-12T06:58:06.868Z,25.27
2023-01-12T07:00:33.281Z,21.73
2023-01-12T07:02:59.732Z,22.35
2023-01-12T07:05:26.108Z,25.23
2023-01-12T07:07:59.104Z,22.63
2023-01-12T07:10:26.166Z,23.63
2023-01-12T07:12:52.624Z,23.42
2023-01-12T07:15:19.035Z,23.55
2023-01-12T07:17:45.471Z,22.70
2023-01-12T07:20:12.101Z,23.33
2023-01-12T07:22:39.348Z,22.83
2023-01-12T07:25:06.237Z,24.50
2023-01-12T07:27:32.616Z,23.27
2023-01-12T07:29:59.278Z,23.88
2023-01-12T07:32:27.331Z,23.05
2023-01-12T07:34:53.764Z,23.13
2023-01-12T07:37:20.408Z,24.45
2023-01-12T07:39:46.939Z,24.60
2023-01-12T07:42:25.175Z,22.13
2023-01-12T07:44:52.155Z,24.95
2023-01-12T07:47:18.891Z,24.60
2023-01-12T07:49:45.305Z,23.95
2023-01-12T07:52:12.783Z,24.80
2023-01-12T07:54:39.188Z,24.67
2023-01-12T07:57:10.013Z,23.88
2023-01-12T07:59:36.682Z,22.98
2023-01-12T08:02:03.986Z,21.13
2023-01-12T08:04:30.454Z,21.17
2023-01-12T08:06:57.252Z,19.85
2023-01-12T08:09:24.076Z,21.15
2023-01-12T08:11:50.469Z,19.50
2023-01-12T08:14:27.407Z,20.50
2023-01-12T08:16:56.430Z,19.65
2023-01-12T08:19:28.127Z,18.85
2023-01-12T08:21:58.854Z,20.13
2023-01-12T08:24:32.119Z,21.45
2023-01-12T08:27:02.085Z,20.70
2023-01-12T08:29:42.016Z,19.33
2023-01-12T08:34:42.464Z,18.60
2023-01-12T08:37:14.061Z,18.70
2023-01-12T08:39:40.941Z,18.98
2023-01-12T08:42:07.492Z,18.23
2023-01-12T08:44:35.441Z,18.98
2023-01-12T08:47:03.710Z,19.85
2023-01-12T08:49:31.320Z,18.85
2023-01-12T08:51:58.096Z,18.25
2023-01-12T08:54:25.247Z,19.13
2023-01-12T08:56:53.796Z,19.25
2023-01-12T08:59:20.330Z,19.35
2023-01-12T09:01:47.218Z,19.95
2023-01-12T09:04:13.686Z,20.13
2023-01-12T09:06:42.865Z,21.25
2023-01-12T09:09:12.379Z,21.55
2023-01-12T09:11:41.913Z,20.35
2023-01-12T09:14:09.008Z,20.75
2023-01-12T09:16:35.563Z,19.83
2023-01-12T09:19:02.132Z,20.63
2023-01-12T09:21:30.694Z,19.67
2023-01-12T09:23:57.663Z,20.50
2023-01-12T09:26:31.919Z,20.42
2023-01-12T09:28:59.522Z,21.80
2023-01-12T09:31:27.405Z,23.45
2023-01-12T09:33:54.579Z,25.83
2023-01-12T09:36:30.058Z,25.60
2023-01-12T09:38:56.600Z,24.65
2023-01-12T09:41:43.927Z,24.90
2023-01-12T09:44:38.517Z,24.70
2023-01-12T09:47:10.276Z,24.27
2023-01-12T09:49:44.316Z,24.52
2023-01-12T09:52:21.979Z,24.10
2023-01-12T09:54:51.421Z,23.80
2023-01-12T09:57:30.509Z,23.13
2023-01-12T10:00:11.348Z,22.52
2023-01-12T10:02:41.723Z,20.65
2023-01-12T10:05:19.753Z,21.55
2023-01-12T10:07:47.686Z,21.75
2023-01-12T10:10:15.523Z,21.67
2023-01-12T10:12:48.304Z,21.35
2023-01-12T10:15:42.673Z,20.58
2023-01-12T10:18:25.686Z,20.70
2023-01-12T10:20:52.922Z,20.55
2023-01-12T10:23:24.491Z,21.13
2023-01-12T10:25:59.653Z,20.25
2023-01-12T10:28:30.136Z,20.80
2023-01-12T10:30:58.238Z,21.08
2023-01-12T10:33:33.327Z,20.30
2023-01-12T10:36:20.481Z,21.33
2023-01-12T10:38:57.560Z,20.55
2023-01-12T10:41:26.471Z,21.40
2023-01-12T10:43:58.723Z,21.65
2023-01-12T10:46:28.213Z,22.30
2023-01-12T10:49:29.574Z,21.45
2023-01-12T10:52:10.584Z,22.00
2023-01-12T10:54:41.266Z,22.30
2023-01-12T10:57:22.356Z,21.48
2023-01-12T11:00:00.059Z,21.48
2023-01-12T11:02:28.914Z,21.63
2023-01-12T11:04:55.698Z,21.73
2023-01-12T11:07:29.002Z,21.27
2023-01-12T11:10:16.359Z,21.50
2023-01-12T11:12:55.095Z,21.30
2023-01-12T11:15:21.818Z,21.98
2023-01-12T11:18:11.256Z,22.88
2023-01-12T11:21:02.609Z,23.83
2023-01-12T11:23:37.224Z,23.33
2023-01-12T11:26:29.072Z,23.85
2023-01-12T11:29:02.764Z,23.98
2023-01-12T11:31:38.293Z,22.35
2023-01-12T11:34:22.259Z,24.60
2023-01-12T11:37:00.663Z,39.25
2023-01-12T11:39:30.311Z,24.67
2023-01-12T11:42:20.078Z,21.35
2023-01-12T11:44:46.428Z,22.20
2023-01-12T11:47:21.239Z,20.88
2023-01-12T11:50:02.303Z,21.50
2023-01-12T11:52:29.504Z,20.25
2023-01-12T11:54:56.148Z,20.77
2023-01-12T11:57:25.217Z,21.20
2023-01-12T12:00:13.312Z,22.33
2023-01-12T12:03:26.103Z,21.98
2023-01-12T12:06:03.904Z,21.05
2023-01-12T12:08:33.063Z,21.70
2023-01-12T12:11:02.977Z,22.27
2023-01-12T12:13:56.135Z,23.02
2023-01-12T12:17:04.417Z,23.08
2023-01-12T12:19:47.567Z,23.52
2023-01-12T12:22:43.945Z,23.33
2023-01-12T12:25:30.385Z,23.40
2023-01-12T12:28:06.244Z,24.15
2023-01-12T12:30:47.334Z,25.00
2023-01-12T12:33:32.156Z,21.27
2023-01-12T12:36:26.532Z,21.40
2023-01-12T12:39:24.581Z,22.25
2023-01-12T12:42:38.774Z,22.63
2023-01-12T12:45:22.413Z,23.27
2023-01-12T12:47:57.725Z,24.13
2023-01-12T12:50:48.112Z,23.88
2023-01-12T12:53:19.903Z,24.98
2023-01-12T12:55:47.576Z,25.63
2023-01-12T12:58:23.024Z,25.48
2023-01-12T13:00:50.955Z,24.95
2023-01-12T13:03:39.258Z,24.05
2023-01-12T13:06:28.603Z,24.65
2023-01-12T13:09:00.942Z,23.67
2023-01-12T13:11:54.368Z,24.02
2023-01-12T13:14:38.724Z,24.00
2023-01-12T13:17:20.215Z,25.05
2023-01-12T13:19:48.372Z,23.35
2023-01-12T13:22:41.980Z,23.15
2023-01-12T13:25:20.689Z,21.10
2023-01-12T13:27:54.128Z,20.83
2023-01-12T13:30:26.728Z,21.17
2023-01-12T13:32:53.466Z,20.55
2023-01-12T13:35:49.040Z,21.10
2023-01-12T13:38:34.060Z,19.10
2023-01-12T13:41:13.629Z,21.27
2023-01-12T13:43:52.337Z,19.00
2023-01-12T13:46:23.849Z,20.48
2023-01-12T13:48:54.485Z,22.48
2023-01-12T13:51:28.328Z,21.23
2023-01-12T13:54:15.397Z,21.25
2023-01-12T13:56:42.908Z,22.50
2023-01-12T13:59:18.158Z,24.25
2023-01-12T14:01:47.307Z,24.45
2023-01-12T14:04:13.886Z,18.58
2023-01-12T14:06:49.590Z,25.45
2023-01-12T14:09:29.595Z,23.50
2023-01-12T14:12:26.577Z,23.08
2023-01-12T14:15:29.197Z,28.40
2023-01-12T14:18:09.095Z,26.13
2023-01-12T14:20:53.542Z,25.30
2023-01-12T14:23:26.022Z,23.77
2023-01-12T14:26:12.012Z,32.13
2023-01-12T14:28:41.331Z,22.70
2023-01-12T14:31:16.985Z,24.77
2023-01-12T14:33:50.262Z,29.30
2023-01-12T14:36:21.747Z,23.55
2023-01-12T14:38:49.283Z,24.08
2023-01-12T14:41:38.126Z,22.42
2023-01-12T14:44:23.987Z,27.45
2023-01-12T14:46:53.869Z,25.15
2023-01-12T14:49:32.216Z,25.23
2023-01-12T14:52:01.600Z,26.58
2023-01-12T14:54:29.850Z,19.80
2023-01-12T14:57:18.398Z,19.40
2023-01-12T14:59:47.185Z,25.60
2023-01-12T15:02:13.798Z,26.08
2023-01-12T15:04:55.218Z,30.58
2023-01-12T15:07:22.897Z,37.28
2023-01-12T15:10:02.174Z,27.27
2023-01-12T15:12:28.733Z,38.00
2023-01-12T15:15:19.245Z,29.45
2023-01-12T15:18:06.772Z,33.38
2023-01-12T15:20:58.343Z,29.42
2023-01-12T15:23:54.148Z,36.65
2023-01-12T15:26:21.793Z,33.53
2023-01-12T15:28:49.659Z,35.33
2023-01-12T15:31:28.435Z,33.08
2023-01-12T15:33:57.020Z,28.17
2023-01-12T15:36:25.137Z,27.80
2023-01-12T15:38:52.233Z,32.20
2023-01-12T15:41:46.119Z,26.33
2023-01-12T15:44:15.021Z,24.63
2023-01-12T15:46:42.987Z,23.45
2023-01-12T15:49:11.282Z,26.98
2023-01-12T15:51:38.073Z,27.50
2023-01-12T15:54:05.021Z,27.25
2023-01-12T15:56:31.760Z,28.70
2023-01-12T15:58:58.471Z,37.10
2023-01-12T16:01:33.696Z,28.40
2023-01-12T16:04:36.068Z,28.63
2023-01-12T16:06:47.200Z,27.17
2023-01-12T16:09:13.911Z,28.35
2023-01-12T16:11:41.084Z,28.83
2023-01-12T16:14:08.102Z,26.63
2023-01-12T16:16:36.155Z,28.65
2023-01-12T16:19:06.081Z,32.97
2023-01-12T16:21:33.737Z,45.40
2023-01-12T16:24:01.215Z,49.95
2023-01-12T16:26:29.560Z,33.00
2023-01-12T16:28:57.564Z,31.27
2023-01-12T16:31:24.045Z,29.42
2023-01-12T16:33:52.421Z,30.25
2023-01-12T16:36:19.081Z,30.63
2023-01-12T16:38:45.530Z,30.02
2023-01-12T16:41:17.022Z,35.88
2023-01-12T16:43:43.445Z,27.00
2023-01-12T16:46:11.219Z,32.38
2023-01-12T16:48:39.272Z,37.30
2023-01-12T16:51:17.314Z,31.67
2023-01-12T16:53:45.025Z,27.90
2023-01-12T16:56:14.567Z,26.13
2023-01-12T16:58:47.526Z,24.08
2023-01-12T17:01:17.335Z,24.83
2023-01-12T17:03:44.311Z,26.17
2023-01-12T17:06:13.165Z,26.95
2023-01-12T17:08:41.510Z,29.60
2023-01-12T17:11:10.120Z,30.95
2023-01-12T17:13:37.636Z,26.52
2023-01-12T17:16:07.415Z,27.45
2023-01-12T17:18:33.959Z,31.38
2023-01-12T17:21:07.563Z,30.98
2023-01-12T17:23:34.081Z,32.40
2023-01-12T17:26:04.855Z,32.10
2023-01-12T17:28:34.627Z,30.88
2023-01-12T17:31:10.912Z,29.65
2023-01-12T17:33:38.440Z,31.85
2023-01-12T17:36:06.405Z,29.50
2023-01-12T17:38:34.666Z,27.80
2023-01-12T17:41:33.193Z,26.30
2023-01-12T17:44:02.127Z,24.50
2023-01-12T17:46:29.856Z,24.83
2023-01-12T17:49:04.859Z,23.63
2023-01-12T17:51:31.607Z,23.65
2023-01-12T17:53:59.301Z,22.02
2023-01-12T17:56:28.247Z,23.15
2023-01-12T17:58:55.595Z,22.70
2023-01-12T18:01:24.140Z,24.05
2023-01-12T18:03:50.913Z,69.22
2023-01-12T18:06:25.767Z,39.85
2023-01-12T18:08:56.174Z,23.80
2023-01-12T18:11:23.414Z,22.63
2023-01-12T18:13:49.795Z,23.20
2023-01-12T18:16:16.568Z,23.38
2023-01-12T18:18:44.064Z,40.60
2023-01-12T18:21:16.393Z,25.58
2023-01-12T18:23:43.580Z,22.95
2023-01-12T18:26:13.886Z,23.65
2023-01-12T18:31:11.116Z,23.30
2023-01-12T18:33:38.116Z,22.23
2023-01-12T18:36:15.110Z,22.50
2023-01-12T18:38:41.859Z,22.90
2023-01-12T18:41:27.400Z,23.52
2023-01-12T18:43:54.172Z,23.10
2023-01-12T18:46:20.596Z,22.90
2023-01-12T18:48:47.845Z,23.08
2023-01-12T18:51:33.461Z,22.88
2023-01-12T18:54:00.400Z,23.02
2023-01-12T18:56:27.009Z,23.10
2023-01-12T18:58:53.441Z,21.98
2023-01-12T19:01:22.676Z,22.13
2023-01-12T19:03:49.827Z,21.80
2023-01-12T19:06:38.479Z,21.45
2023-01-12T19:09:23.595Z,21.55
2023-01-12T19:11:49.976Z,23.15
2023-01-12T19:14:34.729Z,21.70
2023-01-12T19:17:19.665Z,23.17
2023-01-12T19:19:46.104Z,22.65
2023-01-12T19:22:31.125Z,20.80
2023-01-12T19:25:16.064Z,19.90
2023-01-12T19:28:01.197Z,19.55
2023-01-12T19:30:27.658Z,19.42
2023-01-12T19:32:57.569Z,19.67
2023-01-12T19:35:27.313Z,20.45
2023-01-12T19:37:53.752Z,21.17
2023-01-12T19:40:35.071Z,20.70
2023-01-12T19:43:12.513Z,21.20
2023-01-12T19:45:41.159Z,21.65
2023-01-12T19:48:08.197Z,20.52
2023-01-12T19:50:36.098Z,20.10
2023-01-12T19:53:03.441Z,21.33
2023-01-12T19:55:30.606Z,21.50
2023-01-12T19:57:57.604Z,21.88
2023-01-12T20:00:25.339Z,20.83
2023-01-12T20:02:51.902Z,21.42
2023-01-12T20:05:22.658Z,21.05
2023-01-12T20:07:50.303Z,21.35
2023-01-12T20:10:16.747Z,21.23
2023-01-12T20:12:43.195Z,21.92
2023-01-12T20:15:10.417Z,21.80
2023-01-12T20:17:36.924Z,21.60
2023-01-12T20:20:08.491Z,22.10
2023-01-12T20:22:35.769Z,21.02
2023-01-12T20:25:03.522Z,20.88
2023-01-12T20:27:32.614Z,20.58
2023-01-12T20:29:59.736Z,19.80
2023-01-12T20:32:31.493Z,17.48
2023-01-12T20:35:01.848Z,17.55
2023-01-12T20:37:28.323Z,17.40
2023-01-12T20:39:56.317Z,17.50
2023-01-12T20:42:22.746Z,18.10
2023-01-12T20:44:49.741Z,19.60
2023-01-12T20:47:19.057Z,18.33
2023-01-12T20:49:46.656Z,18.57
2023-01-12T20:52:13.415Z,19.20
2023-01-12T20:54:39.960Z,19.40
2023-01-12T20:57:06.387Z,19.60
2023-01-12T20:59:32.846Z,19.25
2023-01-12T21:01:59.503Z,19.95
2023-01-12T21:04:25.939Z,20.73
2023-01-12T21:06:52.338Z,20.30
2023-01-12T21:09:18.805Z,20.02
2023-01-12T21:11:47.046Z,20.42
2023-01-12T21:14:13.894Z,20.90
2023-01-12T21:16:40.338Z,21.00
2023-01-12T21:19:07.768Z,20.05
2023-01-12T21:21:34.293Z,20.85
2023-01-12T21:24:01.132Z,21.38
2023-01-12T21:26:27.543Z,21.92
2023-01-12T21:28:54.229Z,20.98
2023-01-12T21:31:20.664Z,21.05
2023-01-12T21:33:47.158Z,20.90
2023-01-12T21:36:14.496Z,21.08
2023-01-12T21:38:41.041Z,20.20
2023-01-12T21:41:07.594Z,21.02
2023-01-12T21:43:34.354Z,21.42
2023-01-12T21:46:06.079Z,21.70
2023-01-12T21:48:32.607Z,22.60
2023-01-12T21:51:06.928Z,21.92
2023-01-12T21:53:34.586Z,21.55
2023-01-12T21:56:02.540Z,22.13
2023-01-12T21:58:30.793Z,21.38
2023-01-12T22:00:57.485Z,20.85
2023-01-12T22:03:28.152Z,20.70
2023-01-12T22:05:55.277Z,21.70
2023-01-12T22:08:22.263Z,20.92
2023-01-12T22:10:48.710Z,20.92
2023-01-12T22:13:17.301Z,20.70
2023-01-12T22:15:44.941Z,20.88
2023-01-12T22:18:11.365Z,21.30
2023-01-12T22:20:38.654Z,21.08
2023-01-12T22:23:05.071Z,21.10
2023-01-12T22:25:31.511Z,20.85
2023-01-12T22:27:57.967Z,21.48
2023-01-12T22:30:25.204Z,21.67
2023-01-12T22:32:54.504Z,20.98
2023-01-12T22:35:21.357Z,20.73
2023-01-12T22:37:48.033Z,20.23
2023-01-12T22:40:15.838Z,19.33
2023-01-12T22:43:00.624Z,18.58
2023-01-12T22:45:27.045Z,18.88
2023-01-12T22:47:57.114Z,18.52
2023-01-12T22:50:24.787Z,18.40
2023-01-12T22:52:54.981Z,18.33
2023-01-12T22:57:48.564Z,18.10
2023-01-12T23:00:22.531Z,17.48
2023-01-12T23:03:01.763Z,17.55
2023-01-12T23:05:32.038Z,17.70
2023-01-12T23:07:59.265Z,16.67
2023-01-12T23:10:26.314Z,17.30
2023-01-12T23:13:11.175Z,16.00
2023-01-12T23:15:39.180Z,16.35
2023-01-12T23:18:06.798Z,16.75
2023-01-12T23:20:35.686Z,16.02
2023-01-12T23:23:06.335Z,15.48
2023-01-12T23:25:33.774Z,15.18
2023-01-12T23:28:00.468Z,15.20
2023-01-12T23:30:30.991Z,14.90
2023-01-12T23:33:04.082Z,15.05
2023-01-12T23:35:39.112Z,14.93
2023-01-12T23:38:07.483Z,15.05
2023-01-12T23:40:34.110Z,14.48
2023-01-12T23:43:01.500Z,14.30
2023-01-12T23:45:28.093Z,16.35
2023-01-12T23:47:54.617Z,14.20
2023-01-12T23:50:21.138Z,15.05
2023-01-12T23:52:49.880Z,15.50
2023-01-12T23:55:16.353Z,15.98
2023-01-12T23:57:42.910Z,16.38
